sensor_id;sensor_type;location;lat;lon;timestamp;temperature;humidity
10070;DHT22;5074;53.720;10.014;2023-06-14T00:00:01;14.20;99.90
10070;DHT22;5074;53.720;10.014;2023-06-14T00:02:31;14.20;99.90
10070;DHT22;5074;53.720;10.014;2023-06-14T00:04:59;14.10;99.90
10070;DHT22;5074;53.720;10.014;2023-06-14T00:07:34;14.00;99.90
10070;DHT22;5074;53.720;10.014;2023-06-14T00:10:05;14.00;99.90
10070;DHT22;5074;53.720;10.014;2023-06-14T00:12:34;14.00;99.90
10070;DHT22;5074;53.720;10.014;2023-06-14T00:15:03;13.90;99.90
10070;DHT22;5074;53.720;10.014;2023-06-14T00:17:33;13.80;99.90
10070;DHT22;5074;53.720;10.014;2023-06-14T00:20:03;13.80;99.90
10070;DHT22;5074;53.720;10.014;2023-06-14T00:22:36;13.70;99.90
10070;DHT22;5074;53.720;10.014;2023-06-14T00:25:06;13.70;99.90
10070;DHT22;5074;53.720;10.014;2023-06-14T00:27:54;13.70;99.90
10070;DHT22;5074;53.720;10.014;2023-06-14T00:30:23;13.70;99.90
10070;DHT22;5074;53.720;10.014;2023-06-14T00:32:52;13.70;99.90
10070;DHT22;5074;53.720;10.014;2023-06-14T00:35:20;13.60;99.90
10070;DHT22;5074;53.720;10.014;2023-06-14T00:37:49;13.60;99.90
10070;DHT22;5074;53.720;10.014;2023-06-14T00:40:18;13.50;99.90
10070;DHT22;5074;53.720;10.014;2023-06-14T00:42:46;13.50;99.90
10070;DHT22;5074;53.720;10.014;2023-06-14T00:45:15;13.40;99.90
10070;DHT22;5074;53.720;10.014;2023-06-14T00:47:43;13.40;99.90
10070;DHT22;5074;53.720;10.014;2023-06-14T00:50:13;13.40;99.90
10070;DHT22;5074;53.720;10.014;2023-06-14T00:52:41;13.40;99.90
10070;DHT22;5074;53.720;10.014;2023-06-14T00:55:11;13.30;99.90
10070;DHT22;5074;53.720;10.014;2023-06-14T00:57:39;13.30;99.90
10070;DHT22;5074;53.720;10.014;2023-06-14T01:00:08;13.30;99.90
10070;DHT22;5074;53.720;10.014;2023-06-14T01:02:38;13.20;99.90
10070;DHT22;5074;53.720;10.014;2023-06-14T01:05:07;13.30;99.90
10070;DHT22;5074;53.720;10.014;2023-06-14T01:07:40;13.40;99.90
10070;DHT22;5074;53.720;10.014;2023-06-14T01:10:20;13.30;99.90
10070;DHT22;5074;53.720;10.014;2023-06-14T01:13:02;13.40;99.90
10070;DHT22;5074;53.720;10.014;2023-06-14T01:15:35;13.40;99.90
10070;DHT22;5074;53.720;10.014;2023-06-14T01:18:04;13.30;99.90
10070;DHT22;5074;53.720;10.014;2023-06-14T01:20:33;13.30;99.90
10070;DHT22;5074;53.720;10.014;2023-06-14T01:23:06;13.30;99.90
10070;DHT22;5074;53.720;10.014;2023-06-14T01:25:34;13.20;99.90
10070;DHT22;5074;53.720;10.014;2023-06-14T01:28:03;13.20;99.90
10070;DHT22;5074;53.720;10.014;2023-06-14T01:30:37;13.20;99.90
10070;DHT22;5074;53.720;10.014;2023-06-14T01:33:11;13.20;99.90
10070;DHT22;5074;53.720;10.014;2023-06-14T01:35:41;13.20;99.90
10070;DHT22;5074;53.720;10.014;2023-06-14T01:38:11;13.20;99.90
10070;DHT22;5074;53.720;10.014;2023-06-14T01:40:41;13.20;99.90
10070;DHT22;5074;53.720;10.014;2023-06-14T01:43:12;13.20;99.90
10070;DHT22;5074;53.720;10.014;2023-06-14T01:45:41;13.20;99.90
10070;DHT22;5074;53.720;10.014;2023-06-14T01:48:11;13.10;99.90
10070;DHT22;5074;53.720;10.014;2023-06-14T01:50:40;13.10;99.90
10070;DHT22;5074;53.720;10.014;2023-06-14T01:53:08;13.10;99.90
10070;DHT22;5074;53.720;10.014;2023-06-14T01:55:39;13.10;99.90
10070;DHT22;5074;53.720;10.014;2023-06-14T01:58:10;13.10;99.90
10070;DHT22;5074;53.720;10.014;2023-06-14T02:00:39;13.20;99.90
10070;DHT22;5074;53.720;10.014;2023-06-14T02:03:09;13.10;99.90
10070;DHT22;5074;53.720;10.014;2023-06-14T02:05:38;13.00;99.90
10070;DHT22;5074;53.720;10.014;2023-06-14T02:08:06;13.10;99.90
10070;DHT22;5074;53.720;10.014;2023-06-14T02:10:34;13.00;99.90
10070;DHT22;5074;53.720;10.014;2023-06-14T02:13:04;13.00;99.90
10070;DHT22;5074;53.720;10.014;2023-06-14T02:15:32;13.00;99.90
10070;DHT22;5074;53.720;10.014;2023-06-14T02:18:02;13.10;99.90
10070;DHT22;5074;53.720;10.014;2023-06-14T02:20:31;13.10;99.90
10070;DHT22;5074;53.720;10.014;2023-06-14T02:22:59;13.10;99.90
10070;DHT22;5074;53.720;10.014;2023-06-14T02:25:28;13.10;99.90
10070;DHT22;5074;53.720;10.014;2023-06-14T02:27:56;13.00;99.90
10070;DHT22;5074;53.720;10.014;2023-06-14T02:30:25;13.00;99.90
10070;DHT22;5074;53.720;10.014;2023-06-14T02:32:53;12.90;99.90
10070;DHT22;5074;53.720;10.014;2023-06-14T02:35:22;12.90;99.90
10070;DHT22;5074;53.720;10.014;2023-06-14T02:37:52;12.80;99.90
10070;DHT22;5074;53.720;10.014;2023-06-14T02:40:21;12.80;99.90
10070;DHT22;5074;53.720;10.014;2023-06-14T02:42:49;12.70;99.90
10070;DHT22;5074;53.720;10.014;2023-06-14T02:45:17;12.70;99.90
10070;DHT22;5074;53.720;10.014;2023-06-14T02:47:47;12.70;99.90
10070;DHT22;5074;53.720;10.014;2023-06-14T02:50:15;12.80;99.90
10070;DHT22;5074;53.720;10.014;2023-06-14T02:52:44;12.70;99.90
10070;DHT22;5074;53.720;10.014;2023-06-14T02:55:12;12.70;99.90
10070;DHT22;5074;53.720;10.014;2023-06-14T02:57:40;12.70;99.90
10070;DHT22;5074;53.720;10.014;2023-06-14T03:00:09;12.70;99.90
10070;DHT22;5074;53.720;10.014;2023-06-14T03:02:40;12.70;99.90
10070;DHT22;5074;53.720;10.014;2023-06-14T03:05:12;12.60;99.90
10070;DHT22;5074;53.720;10.014;2023-06-14T03:07:40;12.60;99.90
10070;DHT22;5074;53.720;10.014;2023-06-14T03:10:11;12.60;99.90
10070;DHT22;5074;53.720;10.014;2023-06-14T03:12:40;12.70;99.90
10070;DHT22;5074;53.720;10.014;2023-06-14T03:15:09;12.70;99.90
10070;DHT22;5074;53.720;10.014;2023-06-14T03:17:39;12.70;99.90
10070;DHT22;5074;53.720;10.014;2023-06-14T03:20:13;12.70;99.90
10070;DHT22;5074;53.720;10.014;2023-06-14T03:22:42;12.70;99.90
10070;DHT22;5074;53.720;10.014;2023-06-14T03:25:12;12.70;99.90
10070;DHT22;5074;53.720;10.014;2023-06-14T03:27:41;12.70;99.90
10070;DHT22;5074;53.720;10.014;2023-06-14T03:30:10;12.70;99.90
10070;DHT22;5074;53.720;10.014;2023-06-14T03:32:39;12.70;99.90
10070;DHT22;5074;53.720;10.014;2023-06-14T03:35:07;12.70;99.90
10070;DHT22;5074;53.720;10.014;2023-06-14T03:37:38;12.70;99.90
10070;DHT22;5074;53.720;10.014;2023-06-14T03:40:06;12.70;99.90
10070;DHT22;5074;53.720;10.014;2023-06-14T03:42:35;12.70;99.90
10070;DHT22;5074;53.720;10.014;2023-06-14T03:45:04;12.70;99.90
10070;DHT22;5074;53.720;10.014;2023-06-14T03:47:33;12.70;99.90
10070;DHT22;5074;53.720;10.014;2023-06-14T03:50:02;12.70;99.90
10070;DHT22;5074;53.720;10.014;2023-06-14T03:52:30;12.80;99.90
10070;DHT22;5074;53.720;10.014;2023-06-14T03:55:00;12.80;99.90
10070;DHT22;5074;53.720;10.014;2023-06-14T03:57:32;12.80;99.90
10070;DHT22;5074;53.720;10.014;2023-06-14T04:00:00;12.90;99.90
10070;DHT22;5074;53.720;10.014;2023-06-14T04:02:31;13.00;99.90
10070;DHT22;5074;53.720;10.014;2023-06-14T04:04:59;13.00;99.90
10070;DHT22;5074;53.720;10.014;2023-06-14T04:07:30;13.10;99.90
10070;DHT22;5074;53.720;10.014;2023-06-14T04:09:58;13.10;99.90
10070;DHT22;5074;53.720;10.014;2023-06-14T04:12:28;13.10;99.90
10070;DHT22;5074;53.720;10.014;2023-06-14T04:14:56;13.10;99.90
10070;DHT22;5074;53.720;10.014;2023-06-14T04:17:41;13.20;99.90
10070;DHT22;5074;53.720;10.014;2023-06-14T04:20:09;13.20;99.90
10070;DHT22;5074;53.720;10.014;2023-06-14T04:22:37;13.30;99.90
10070;DHT22;5074;53.720;10.014;2023-06-14T04:25:07;13.30;99.90
10070;DHT22;5074;53.720;10.014;2023-06-14T04:27:37;13.40;99.90
10070;DHT22;5074;53.720;10.014;2023-06-14T04:30:06;13.40;99.90
10070;DHT22;5074;53.720;10.014;2023-06-14T04:32:35;13.40;99.90
10070;DHT22;5074;53.720;10.014;2023-06-14T04:35:06;13.50;99.90
10070;DHT22;5074;53.720;10.014;2023-06-14T04:37:35;13.60;99.90
10070;DHT22;5074;53.720;10.014;2023-06-14T04:40:07;13.60;99.90
10070;DHT22;5074;53.720;10.014;2023-06-14T04:42:39;13.80;99.90
10070;DHT22;5074;53.720;10.014;2023-06-14T04:45:11;13.80;99.90
10070;DHT22;5074;53.720;10.014;2023-06-14T04:47:42;13.90;99.90
10070;DHT22;5074;53.720;10.014;2023-06-14T04:50:10;13.90;99.90
10070;DHT22;5074;53.720;10.014;2023-06-14T04:52:39;14.00;99.90
10070;DHT22;5074;53.720;10.014;2023-06-14T04:55:08;14.10;99.90
10070;DHT22;5074;53.720;10.014;2023-06-14T04:57:36;14.20;99.90
10070;DHT22;5074;53.720;10.014;2023-06-14T05:00:08;14.20;99.90
10070;DHT22;5074;53.720;10.014;2023-06-14T05:02:38;14.20;99.90
10070;DHT22;5074;53.720;10.014;2023-06-14T05:05:07;14.30;99.90
10070;DHT22;5074;53.720;10.014;2023-06-14T05:07:35;14.30;99.90
10070;DHT22;5074;53.720;10.014;2023-06-14T05:10:08;14.30;99.90
10070;DHT22;5074;53.720;10.014;2023-06-14T05:12:36;14.30;99.90
10070;DHT22;5074;53.720;10.014;2023-06-14T05:15:05;14.30;99.90
10070;DHT22;5074;53.720;10.014;2023-06-14T05:17:37;14.30;99.90
10070;DHT22;5074;53.720;10.014;2023-06-14T05:20:07;14.40;99.90
10070;DHT22;5074;53.720;10.014;2023-06-14T05:22:37;14.50;99.90
10070;DHT22;5074;53.720;10.014;2023-06-14T05:25:06;14.40;99.90
10070;DHT22;5074;53.720;10.014;2023-06-14T05:27:34;14.50;99.90
10070;DHT22;5074;53.720;10.014;2023-06-14T05:30:04;14.50;99.90
10070;DHT22;5074;53.720;10.014;2023-06-14T05:32:33;14.60;99.90
10070;DHT22;5074;53.720;10.014;2023-06-14T05:35:03;14.60;99.90
10070;DHT22;5074;53.720;10.014;2023-06-14T05:37:32;14.80;99.90
10070;DHT22;5074;53.720;10.014;2023-06-14T05:40:00;14.80;99.90
10070;DHT22;5074;53.720;10.014;2023-06-14T05:42:30;14.90;99.90
10070;DHT22;5074;53.720;10.014;2023-06-14T05:44:58;15.00;99.90
10070;DHT22;5074;53.720;10.014;2023-06-14T05:47:27;15.10;99.90
10070;DHT22;5074;53.720;10.014;2023-06-14T05:49:55;15.10;99.90
10070;DHT22;5074;53.720;10.014;2023-06-14T05:52:24;15.10;99.90
10070;DHT22;5074;53.720;10.014;2023-06-14T05:54:52;15.20;99.90
10070;DHT22;5074;53.720;10.014;2023-06-14T05:57:21;15.30;99.90
10070;DHT22;5074;53.720;10.014;2023-06-14T05:59:49;15.30;99.90
10070;DHT22;5074;53.720;10.014;2023-06-14T06:02:17;15.40;99.90
10070;DHT22;5074;53.720;10.014;2023-06-14T06:04:46;15.40;99.90
10070;DHT22;5074;53.720;10.014;2023-06-14T06:07:14;15.50;99.90
10070;DHT22;5074;53.720;10.014;2023-06-14T06:09:44;15.60;99.90
10070;DHT22;5074;53.720;10.014;2023-06-14T06:12:12;15.60;99.90
10070;DHT22;5074;53.720;10.014;2023-06-14T06:14:40;15.70;99.90
10070;DHT22;5074;53.720;10.014;2023-06-14T06:17:08;15.80;99.90
10070;DHT22;5074;53.720;10.014;2023-06-14T06:19:37;15.90;99.90
10070;DHT22;5074;53.720;10.014;2023-06-14T06:22:06;16.00;99.90
10070;DHT22;5074;53.720;10.014;2023-06-14T06:24:34;16.10;99.90
10070;DHT22;5074;53.720;10.014;2023-06-14T06:27:04;16.20;99.90
10070;DHT22;5074;53.720;10.014;2023-06-14T06:29:34;16.30;99.90
10070;DHT22;5074;53.720;10.014;2023-06-14T06:32:03;16.30;99.90
10070;DHT22;5074;53.720;10.014;2023-06-14T06:34:32;16.30;99.90
10070;DHT22;5074;53.720;10.014;2023-06-14T06:37:00;16.30;99.90
10070;DHT22;5074;53.720;10.014;2023-06-14T06:39:28;16.40;99.90
10070;DHT22;5074;53.720;10.014;2023-06-14T06:41:56;16.50;99.90
10070;DHT22;5074;53.720;10.014;2023-06-14T06:44:25;16.60;99.90
10070;DHT22;5074;53.720;10.014;2023-06-14T06:46:53;16.60;99.90
10070;DHT22;5074;53.720;10.014;2023-06-14T06:49:21;16.70;99.90
10070;DHT22;5074;53.720;10.014;2023-06-14T06:51:59;16.70;99.90
10070;DHT22;5074;53.720;10.014;2023-06-14T06:54:28;16.70;99.90
10070;DHT22;5074;53.720;10.014;2023-06-14T06:56:57;16.80;99.90
10070;DHT22;5074;53.720;10.014;2023-06-14T06:59:26;16.90;99.90
10070;DHT22;5074;53.720;10.014;2023-06-14T07:01:54;16.90;99.90
10070;DHT22;5074;53.720;10.014;2023-06-14T07:04:22;17.00;99.90
10070;DHT22;5074;53.720;10.014;2023-06-14T07:06:50;17.00;99.90
10070;DHT22;5074;53.720;10.014;2023-06-14T07:09:19;17.20;99.90
10070;DHT22;5074;53.720;10.014;2023-06-14T07:11:47;17.30;99.90
10070;DHT22;5074;53.720;10.014;2023-06-14T07:14:15;17.50;99.90
10070;DHT22;5074;53.720;10.014;2023-06-14T07:16:45;17.50;99.90
10070;DHT22;5074;53.720;10.014;2023-06-14T07:19:13;17.50;99.90
10070;DHT22;5074;53.720;10.014;2023-06-14T07:21:42;17.50;99.90
10070;DHT22;5074;53.720;10.014;2023-06-14T07:24:10;17.50;99.90
10070;DHT22;5074;53.720;10.014;2023-06-14T07:26:38;17.60;99.90
10070;DHT22;5074;53.720;10.014;2023-06-14T07:29:06;17.70;99.90
10070;DHT22;5074;53.720;10.014;2023-06-14T07:31:34;17.80;99.90
10070;DHT22;5074;53.720;10.014;2023-06-14T07:34:04;17.90;99.90
10070;DHT22;5074;53.720;10.014;2023-06-14T07:36:32;18.00;99.90
10070;DHT22;5074;53.720;10.014;2023-06-14T07:39:00;18.00;99.90
10070;DHT22;5074;53.720;10.014;2023-06-14T07:41:30;18.10;99.90
10070;DHT22;5074;53.720;10.014;2023-06-14T07:43:58;18.20;99.90
10070;DHT22;5074;53.720;10.014;2023-06-14T07:46:26;18.40;99.90
10070;DHT22;5074;53.720;10.014;2023-06-14T07:48:54;18.50;99.90
10070;DHT22;5074;53.720;10.014;2023-06-14T07:51:23;18.60;99.90
10070;DHT22;5074;53.720;10.014;2023-06-14T07:53:51;18.70;99.90
10070;DHT22;5074;53.720;10.014;2023-06-14T07:56:20;18.60;99.90
10070;DHT22;5074;53.720;10.014;2023-06-14T07:58:48;18.70;99.90
10070;DHT22;5074;53.720;10.014;2023-06-14T08:01:16;18.70;99.90
10070;DHT22;5074;53.720;10.014;2023-06-14T08:03:45;18.80;99.90
10070;DHT22;5074;53.720;10.014;2023-06-14T08:06:14;18.80;99.90
10070;DHT22;5074;53.720;10.014;2023-06-14T08:08:44;18.90;99.90
10070;DHT22;5074;53.720;10.014;2023-06-14T08:11:12;19.10;99.90
10070;DHT22;5074;53.720;10.014;2023-06-14T08:13:40;19.20;99.90
10070;DHT22;5074;53.720;10.014;2023-06-14T08:16:08;19.20;99.90
10070;DHT22;5074;53.720;10.014;2023-06-14T08:18:37;19.40;99.90
10070;DHT22;5074;53.720;10.014;2023-06-14T08:21:05;19.40;99.90
10070;DHT22;5074;53.720;10.014;2023-06-14T08:23:34;19.40;99.90
10070;DHT22;5074;53.720;10.014;2023-06-14T08:26:04;19.40;99.90
10070;DHT22;5074;53.720;10.014;2023-06-14T08:28:32;19.30;99.90
10070;DHT22;5074;53.720;10.014;2023-06-14T08:31:00;19.30;99.90
10070;DHT22;5074;53.720;10.014;2023-06-14T08:33:28;19.40;99.90
10070;DHT22;5074;53.720;10.014;2023-06-14T08:35:59;19.50;99.90
10070;DHT22;5074;53.720;10.014;2023-06-14T08:38:27;19.50;99.90
10070;DHT22;5074;53.720;10.014;2023-06-14T08:40:56;19.60;99.90
10070;DHT22;5074;53.720;10.014;2023-06-14T08:43:27;19.70;99.90
10070;DHT22;5074;53.720;10.014;2023-06-14T08:45:58;19.70;99.90
10070;DHT22;5074;53.720;10.014;2023-06-14T08:48:28;19.70;99.90
10070;DHT22;5074;53.720;10.014;2023-06-14T08:51:00;19.80;99.90
10070;DHT22;5074;53.720;10.014;2023-06-14T08:53:30;19.90;99.90
10070;DHT22;5074;53.720;10.014;2023-06-14T08:56:04;20.00;99.90
10070;DHT22;5074;53.720;10.014;2023-06-14T08:58:35;20.00;99.90
10070;DHT22;5074;53.720;10.014;2023-06-14T09:01:04;20.00;99.90
10070;DHT22;5074;53.720;10.014;2023-06-14T09:03:34;20.00;99.90
10070;DHT22;5074;53.720;10.014;2023-06-14T09:06:04;20.10;99.90
10070;DHT22;5074;53.720;10.014;2023-06-14T09:08:32;20.00;99.90
10070;DHT22;5074;53.720;10.014;2023-06-14T09:11:01;20.00;99.90
10070;DHT22;5074;53.720;10.014;2023-06-14T09:13:30;20.10;99.90
10070;DHT22;5074;53.720;10.014;2023-06-14T09:15:59;20.30;99.90
10070;DHT22;5074;53.720;10.014;2023-06-14T09:18:33;20.40;99.90
10070;DHT22;5074;53.720;10.014;2023-06-14T09:21:02;20.60;99.90
10070;DHT22;5074;53.720;10.014;2023-06-14T09:23:32;20.70;99.90
10070;DHT22;5074;53.720;10.014;2023-06-14T09:26:05;20.80;99.90
10070;DHT22;5074;53.720;10.014;2023-06-14T09:28:34;20.70;99.90
10070;DHT22;5074;53.720;10.014;2023-06-14T09:31:03;20.60;99.90
10070;DHT22;5074;53.720;10.014;2023-06-14T09:33:32;20.70;99.90
10070;DHT22;5074;53.720;10.014;2023-06-14T09:36:00;20.80;99.90
10070;DHT22;5074;53.720;10.014;2023-06-14T09:38:28;20.90;99.90
10070;DHT22;5074;53.720;10.014;2023-06-14T09:40:57;21.10;99.90
10070;DHT22;5074;53.720;10.014;2023-06-14T09:43:26;21.30;99.90
10070;DHT22;5074;53.720;10.014;2023-06-14T09:45:55;21.30;99.90
10070;DHT22;5074;53.720;10.014;2023-06-14T09:48:25;21.40;99.90
10070;DHT22;5074;53.720;10.014;2023-06-14T09:50:53;21.30;99.90
10070;DHT22;5074;53.720;10.014;2023-06-14T09:53:25;21.30;99.90
10070;DHT22;5074;53.720;10.014;2023-06-14T09:55:55;21.30;99.90
10070;DHT22;5074;53.720;10.014;2023-06-14T09:58:26;21.20;99.90
10070;DHT22;5074;53.720;10.014;2023-06-14T10:00:55;21.50;99.90
10070;DHT22;5074;53.720;10.014;2023-06-14T10:03:28;21.60;99.90
10070;DHT22;5074;53.720;10.014;2023-06-14T10:06:09;21.70;99.90
10070;DHT22;5074;53.720;10.014;2023-06-14T10:08:38;21.50;99.90
10070;DHT22;5074;53.720;10.014;2023-06-14T10:11:08;21.70;99.90
10070;DHT22;5074;53.720;10.014;2023-06-14T10:13:36;21.80;99.90
10070;DHT22;5074;53.720;10.014;2023-06-14T10:16:06;21.90;99.90
10070;DHT22;5074;53.720;10.014;2023-06-14T10:18:43;21.90;99.90
10070;DHT22;5074;53.720;10.014;2023-06-14T10:21:18;22.00;99.90
10070;DHT22;5074;53.720;10.014;2023-06-14T10:23:55;22.00;99.90
10070;DHT22;5074;53.720;10.014;2023-06-14T10:26:27;22.20;99.90
10070;DHT22;5074;53.720;10.014;2023-06-14T10:28:59;22.40;99.90
10070;DHT22;5074;53.720;10.014;2023-06-14T10:31:41;22.50;99.90
10070;DHT22;5074;53.720;10.014;2023-06-14T10:34:12;22.50;99.90
10070;DHT22;5074;53.720;10.014;2023-06-14T10:37:00;22.60;99.90
10070;DHT22;5074;53.720;10.014;2023-06-14T10:39:30;22.90;99.90
10070;DHT22;5074;53.720;10.014;2023-06-14T10:42:01;23.00;99.90
10070;DHT22;5074;53.720;10.014;2023-06-14T10:44:41;23.10;99.90
10070;DHT22;5074;53.720;10.014;2023-06-14T10:47:18;23.20;99.90
10070;DHT22;5074;53.720;10.014;2023-06-14T10:49:51;22.70;99.90
10070;DHT22;5074;53.720;10.014;2023-06-14T10:52:22;22.50;99.90
10070;DHT22;5074;53.720;10.014;2023-06-14T10:57:44;22.50;99.90
10070;DHT22;5074;53.720;10.014;2023-06-14T11:00:19;22.80;99.90
10070;DHT22;5074;53.720;10.014;2023-06-14T11:05:59;23.10;99.90
10070;DHT22;5074;53.720;10.014;2023-06-14T11:08:35;23.30;99.90
10070;DHT22;5074;53.720;10.014;2023-06-14T11:11:15;23.10;99.90
10070;DHT22;5074;53.720;10.014;2023-06-14T11:13:45;23.20;99.90
10070;DHT22;5074;53.720;10.014;2023-06-14T11:16:13;23.00;99.70
10070;DHT22;5074;53.720;10.014;2023-06-14T11:18:44;23.10;99.90
10070;DHT22;5074;53.720;10.014;2023-06-14T11:21:16;23.20;99.90
10070;DHT22;5074;53.720;10.014;2023-06-14T11:23:48;23.30;99.90
10070;DHT22;5074;53.720;10.014;2023-06-14T11:26:24;23.30;99.20
10070;DHT22;5074;53.720;10.014;2023-06-14T11:28:54;23.30;98.90
10070;DHT22;5074;53.720;10.014;2023-06-14T11:31:24;23.30;98.70
10070;DHT22;5074;53.720;10.014;2023-06-14T11:33:53;23.40;99.80
10070;DHT22;5074;53.720;10.014;2023-06-14T11:36:25;23.40;99.00
10070;DHT22;5074;53.720;10.014;2023-06-14T11:38:59;23.20;97.70
10070;DHT22;5074;53.720;10.014;2023-06-14T11:41:32;23.10;98.60
10070;DHT22;5074;53.720;10.014;2023-06-14T11:44:01;23.20;98.10
10070;DHT22;5074;53.720;10.014;2023-06-14T11:46:30;23.50;99.00
10070;DHT22;5074;53.720;10.014;2023-06-14T11:48:58;23.90;98.20
10070;DHT22;5074;53.720;10.014;2023-06-14T11:51:31;23.90;97.70
10070;DHT22;5074;53.720;10.014;2023-06-14T11:54:00;23.50;98.30
10070;DHT22;5074;53.720;10.014;2023-06-14T11:56:29;23.40;97.60
10070;DHT22;5074;53.720;10.014;2023-06-14T11:58:59;23.60;98.20
10070;DHT22;5074;53.720;10.014;2023-06-14T12:01:29;23.90;97.60
10070;DHT22;5074;53.720;10.014;2023-06-14T12:03:58;24.10;97.30
10070;DHT22;5074;53.720;10.014;2023-06-14T12:06:27;24.20;97.20
10070;DHT22;5074;53.720;10.014;2023-06-14T12:09:02;24.30;97.20
10070;DHT22;5074;53.720;10.014;2023-06-14T12:11:33;24.60;97.00
10070;DHT22;5074;53.720;10.014;2023-06-14T12:14:03;24.90;96.70
10070;DHT22;5074;53.720;10.014;2023-06-14T12:16:32;24.80;96.30
10070;DHT22;5074;53.720;10.014;2023-06-14T12:19:09;24.50;96.20
10070;DHT22;5074;53.720;10.014;2023-06-14T12:21:40;24.50;96.60
10070;DHT22;5074;53.720;10.014;2023-06-14T12:24:11;24.60;96.20
10070;DHT22;5074;53.720;10.014;2023-06-14T12:26:40;24.70;96.00
10070;DHT22;5074;53.720;10.014;2023-06-14T12:29:09;24.90;95.50
10070;DHT22;5074;53.720;10.014;2023-06-14T12:31:39;25.10;95.90
10070;DHT22;5074;53.720;10.014;2023-06-14T12:34:08;25.60;94.70
10070;DHT22;5074;53.720;10.014;2023-06-14T12:36:36;26.60;94.10
10070;DHT22;5074;53.720;10.014;2023-06-14T12:39:09;27.80;93.50
10070;DHT22;5074;53.720;10.014;2023-06-14T12:41:38;28.50;91.60
10070;DHT22;5074;53.720;10.014;2023-06-14T12:44:08;28.00;91.30
10070;DHT22;5074;53.720;10.014;2023-06-14T12:46:36;27.50;91.10
10070;DHT22;5074;53.720;10.014;2023-06-14T12:49:07;27.60;91.40
10070;DHT22;5074;53.720;10.014;2023-06-14T12:51:36;28.30;91.30
10070;DHT22;5074;53.720;10.014;2023-06-14T12:54:05;29.30;90.60
10070;DHT22;5074;53.720;10.014;2023-06-14T12:56:34;30.00;88.60
10070;DHT22;5074;53.720;10.014;2023-06-14T12:59:03;30.20;88.20
10070;DHT22;5074;53.720;10.014;2023-06-14T13:01:32;29.70;85.80
10070;DHT22;5074;53.720;10.014;2023-06-14T13:04:01;29.90;86.90
10070;DHT22;5074;53.720;10.014;2023-06-14T13:06:29;30.60;86.20
10070;DHT22;5074;53.720;10.014;2023-06-14T13:08:57;30.00;84.50
10070;DHT22;5074;53.720;10.014;2023-06-14T13:11:26;29.50;83.70
10070;DHT22;5074;53.720;10.014;2023-06-14T13:13:55;29.40;84.50
10070;DHT22;5074;53.720;10.014;2023-06-14T13:16:23;29.70;84.70
10070;DHT22;5074;53.720;10.014;2023-06-14T13:18:52;28.90;85.90
10070;DHT22;5074;53.720;10.014;2023-06-14T13:21:20;29.30;84.20
10070;DHT22;5074;53.720;10.014;2023-06-14T13:23:48;30.40;83.50
10070;DHT22;5074;53.720;10.014;2023-06-14T13:26:16;30.40;83.10
10070;DHT22;5074;53.720;10.014;2023-06-14T13:28:45;30.80;80.70
10070;DHT22;5074;53.720;10.014;2023-06-14T13:31:14;30.70;81.20
10070;DHT22;5074;53.720;10.014;2023-06-14T13:33:42;30.10;81.40
10070;DHT22;5074;53.720;10.014;2023-06-14T13:36:10;30.40;81.20
10070;DHT22;5074;53.720;10.014;2023-06-14T13:38:38;30.90;78.00
10070;DHT22;5074;53.720;10.014;2023-06-14T13:41:06;30.90;77.30
10070;DHT22;5074;53.720;10.014;2023-06-14T13:43:35;30.80;78.30
10070;DHT22;5074;53.720;10.014;2023-06-14T13:46:02;31.40;74.70
10070;DHT22;5074;53.720;10.014;2023-06-14T13:48:32;31.60;75.70
10070;DHT22;5074;53.720;10.014;2023-06-14T13:51:01;32.10;75.80
10070;DHT22;5074;53.720;10.014;2023-06-14T13:53:30;31.90;77.50
10070;DHT22;5074;53.720;10.014;2023-06-14T13:55:59;31.70;75.00
10070;DHT22;5074;53.720;10.014;2023-06-14T13:58:27;32.30;75.30
10070;DHT22;5074;53.720;10.014;2023-06-14T14:00:55;32.80;74.60
10070;DHT22;5074;53.720;10.014;2023-06-14T14:03:26;33.00;71.60
10070;DHT22;5074;53.720;10.014;2023-06-14T14:05:56;33.10;73.70
10070;DHT22;5074;53.720;10.014;2023-06-14T14:08:24;32.60;71.50
10070;DHT22;5074;53.720;10.014;2023-06-14T14:10:52;32.70;72.30
10070;DHT22;5074;53.720;10.014;2023-06-14T14:13:21;32.80;71.10
10070;DHT22;5074;53.720;10.014;2023-06-14T14:15:49;33.20;72.60
10070;DHT22;5074;53.720;10.014;2023-06-14T14:18:17;32.80;72.20
10070;DHT22;5074;53.720;10.014;2023-06-14T14:20:47;32.30;72.80
10070;DHT22;5074;53.720;10.014;2023-06-14T14:23:17;32.50;71.50
10070;DHT22;5074;53.720;10.014;2023-06-14T14:25:46;32.80;70.60
10070;DHT22;5074;53.720;10.014;2023-06-14T14:28:14;32.80;70.10
10070;DHT22;5074;53.720;10.014;2023-06-14T14:30:45;32.70;71.00
10070;DHT22;5074;53.720;10.014;2023-06-14T14:33:14;31.80;70.70
10070;DHT22;5074;53.720;10.014;2023-06-14T14:35:44;31.80;71.40
10070;DHT22;5074;53.720;10.014;2023-06-14T14:38:13;31.40;72.20
10070;DHT22;5074;53.720;10.014;2023-06-14T14:40:43;31.40;71.70
10070;DHT22;5074;53.720;10.014;2023-06-14T14:43:12;31.70;72.00
10070;DHT22;5074;53.720;10.014;2023-06-14T14:45:40;32.60;69.80
10070;DHT22;5074;53.720;10.014;2023-06-14T14:48:08;32.30;69.40
10070;DHT22;5074;53.720;10.014;2023-06-14T14:50:36;32.20;70.50
10070;DHT22;5074;53.720;10.014;2023-06-14T14:53:05;32.30;71.10
10070;DHT22;5074;53.720;10.014;2023-06-14T14:55:33;32.30;70.70
10070;DHT22;5074;53.720;10.014;2023-06-14T14:58:05;32.50;69.80
10070;DHT22;5074;53.720;10.014;2023-06-14T15:00:34;32.50;69.10
10070;DHT22;5074;53.720;10.014;2023-06-14T15:03:02;32.40;69.70
10070;DHT22;5074;53.720;10.014;2023-06-14T15:05:31;32.70;69.60
10070;DHT22;5074;53.720;10.014;2023-06-14T15:08:00;33.10;70.20
10070;DHT22;5074;53.720;10.014;2023-06-14T15:10:28;32.60;68.30
10070;DHT22;5074;53.720;10.014;2023-06-14T15:12:56;32.50;70.10
10070;DHT22;5074;53.720;10.014;2023-06-14T15:15:26;32.30;69.30
10070;DHT22;5074;53.720;10.014;2023-06-14T15:17:54;32.60;69.30
10070;DHT22;5074;53.720;10.014;2023-06-14T15:20:22;32.70;69.10
10070;DHT22;5074;53.720;10.014;2023-06-14T15:22:50;32.70;69.70
10070;DHT22;5074;53.720;10.014;2023-06-14T15:25:18;33.20;69.00
10070;DHT22;5074;53.720;10.014;2023-06-14T15:27:47;33.40;68.00
10070;DHT22;5074;53.720;10.014;2023-06-14T15:30:15;32.90;68.60
10070;DHT22;5074;53.720;10.014;2023-06-14T15:32:45;32.70;67.60
10070;DHT22;5074;53.720;10.014;2023-06-14T15:35:14;32.00;69.30
10070;DHT22;5074;53.720;10.014;2023-06-14T15:37:42;31.50;69.90
10070;DHT22;5074;53.720;10.014;2023-06-14T15:40:11;31.40;69.70
10070;DHT22;5074;53.720;10.014;2023-06-14T15:42:40;31.10;69.20
10070;DHT22;5074;53.720;10.014;2023-06-14T15:45:08;31.40;70.10
10070;DHT22;5074;53.720;10.014;2023-06-14T15:47:37;31.30;69.00
10070;DHT22;5074;53.720;10.014;2023-06-14T15:50:07;31.50;69.00